sensor_id;sensor_type;location;lat;lon;timestamp;P1;durP1;ratioP1;P2;durP2;ratioP2
40621;SDS011;26324;52.040;11.528;2023-06-10T00:02:25;4.32;;;1.98;;
40621;SDS011;26324;52.040;11.528;2023-06-10T00:04:54;3.78;;;2.40;;
40621;SDS011;26324;52.040;11.528;2023-06-10T00:07:22;5.93;;;2.47;;
40621;SDS011;26324;52.040;11.528;2023-06-10T00:09:49;2.30;;;1.80;;
40621;SDS011;26324;52.040;11.528;2023-06-10T00:12:17;8.23;;;2.33;;
40621;SDS011;26324;52.040;11.528;2023-06-10T00:14:45;3.20;;;2.10;;
40621;SDS011;26324;52.040;11.528;2023-06-10T00:17:12;4.80;;;2.38;;
40621;SDS011;26324;52.040;11.528;2023-06-10T00:22:14;3.83;;;2.25;;
40621;SDS011;26324;52.040;11.528;2023-06-10T00:24:41;3.50;;;2.28;;
40621;SDS011;26324;52.040;11.528;2023-06-10T00:27:09;3.20;;;2.08;;
40621;SDS011;26324;52.040;11.528;2023-06-10T00:29:36;5.72;;;2.03;;
40621;SDS011;26324;52.040;11.528;2023-06-10T00:32:05;6.80;;;2.80;;
40621;SDS011;26324;52.040;11.528;2023-06-10T00:34:34;4.85;;;2.30;;
40621;SDS011;26324;52.040;11.528;2023-06-10T00:37:02;4.38;;;2.17;;
40621;SDS011;26324;52.040;11.528;2023-06-10T00:39:30;6.82;;;2.42;;
40621;SDS011;26324;52.040;11.528;2023-06-10T00:41:57;4.03;;;2.45;;
40621;SDS011;26324;52.040;11.528;2023-06-10T00:44:26;4.18;;;2.72;;
40621;SDS011;26324;52.040;11.528;2023-06-10T00:46:53;4.35;;;2.67;;
40621;SDS011;26324;52.040;11.528;2023-06-10T00:49:22;4.40;;;2.58;;
40621;SDS011;26324;52.040;11.528;2023-06-10T00:51:50;8.10;;;3.05;;
40621;SDS011;26324;52.040;11.528;2023-06-10T00:56:47;4.30;;;2.20;;
40621;SDS011;26324;52.040;11.528;2023-06-10T00:59:15;5.63;;;3.08;;
40621;SDS011;26324;52.040;11.528;2023-06-10T01:01:42;3.58;;;2.30;;
40621;SDS011;26324;52.040;11.528;2023-06-10T01:04:10;7.07;;;2.75;;
40621;SDS011;26324;52.040;11.528;2023-06-10T01:09:33;7.20;;;2.47;;
40621;SDS011;26324;52.040;11.528;2023-06-10T01:15:34;5.07;;;2.40;;
40621;SDS011;26324;52.040;11.528;2023-06-10T01:18:03;5.85;;;3.05;;
40621;SDS011;26324;52.040;11.528;2023-06-10T01:20:42;5.72;;;2.53;;
40621;SDS011;26324;52.040;11.528;2023-06-10T01:25:38;7.15;;;2.67;;
40621;SDS011;26324;52.040;11.528;2023-06-10T01:28:15;5.53;;;2.42;;
40621;SDS011;26324;52.040;11.528;2023-06-10T01:33:41;5.78;;;2.42;;
40621;SDS011;26324;52.040;11.528;2023-06-10T01:36:10;3.97;;;1.92;;
40621;SDS011;26324;52.040;11.528;2023-06-10T01:38:40;3.78;;;2.35;;
40621;SDS011;26324;52.040;11.528;2023-06-10T01:41:14;5.10;;;2.75;;
40621;SDS011;26324;52.040;11.528;2023-06-10T01:43:44;4.65;;;2.60;;
40621;SDS011;26324;52.040;11.528;2023-06-10T01:46:13;4.75;;;2.80;;
40621;SDS011;26324;52.040;11.528;2023-06-10T01:48:41;5.30;;;2.75;;
40621;SDS011;26324;52.040;11.528;2023-06-10T01:51:09;6.95;;;2.70;;
40621;SDS011;26324;52.040;11.528;2023-06-10T01:53:37;4.60;;;2.63;;
40621;SDS011;26324;52.040;11.528;2023-06-10T01:56:04;4.72;;;2.78;;
40621;SDS011;26324;52.040;11.528;2023-06-10T01:58:32;3.00;;;1.95;;
40621;SDS011;26324;52.040;11.528;2023-06-10T02:01:00;4.50;;;2.80;;
40621;SDS011;26324;52.040;11.528;2023-06-10T02:03:29;5.05;;;2.65;;
40621;SDS011;26324;52.040;11.528;2023-06-10T02:05:56;4.47;;;2.25;;
40621;SDS011;26324;52.040;11.528;2023-06-10T02:08:24;4.38;;;2.60;;
40621;SDS011;26324;52.040;11.528;2023-06-10T02:10:51;6.28;;;2.85;;
40621;SDS011;26324;52.040;11.528;2023-06-10T02:13:18;5.20;;;2.65;;
40621;SDS011;26324;52.040;11.528;2023-06-10T02:15:51;3.22;;;2.28;;
40621;SDS011;26324;52.040;11.528;2023-06-10T02:18:20;10.43;;;2.72;;
40621;SDS011;26324;52.040;11.528;2023-06-10T02:20:48;7.53;;;2.50;;
40621;SDS011;26324;52.040;11.528;2023-06-10T02:23:16;5.53;;;2.70;;
40621;SDS011;26324;52.040;11.528;2023-06-10T02:25:43;5.10;;;1.95;;
40621;SDS011;26324;52.040;11.528;2023-06-10T02:28:11;5.43;;;2.47;;
40621;SDS011;26324;52.040;11.528;2023-06-10T02:30:40;4.13;;;2.63;;
40621;SDS011;26324;52.040;11.528;2023-06-10T02:33:08;5.50;;;2.60;;
40621;SDS011;26324;52.040;11.528;2023-06-10T02:35:39;4.88;;;2.65;;
40621;SDS011;26324;52.040;11.528;2023-06-10T02:38:06;6.57;;;2.55;;
40621;SDS011;26324;52.040;11.528;2023-06-10T02:40:34;6.22;;;2.50;;
40621;SDS011;26324;52.040;11.528;2023-06-10T02:43:02;3.95;;;2.67;;
40621;SDS011;26324;52.040;11.528;2023-06-10T02:45:31;5.10;;;2.45;;
40621;SDS011;26324;52.040;11.528;2023-06-10T02:48:00;5.18;;;2.75;;
40621;SDS011;26324;52.040;11.528;2023-06-10T02:53:22;4.32;;;2.42;;
40621;SDS011;26324;52.040;11.528;2023-06-10T02:55:55;4.80;;;2.58;;
40621;SDS011;26324;52.040;11.528;2023-06-10T02:58:22;5.40;;;2.45;;
40621;SDS011;26324;52.040;11.528;2023-06-10T03:00:50;7.80;;;2.45;;
40621;SDS011;26324;52.040;11.528;2023-06-10T03:03:17;4.18;;;2.60;;
40621;SDS011;26324;52.040;11.528;2023-06-10T03:05:55;4.68;;;2.80;;
40621;SDS011;26324;52.040;11.528;2023-06-10T03:08:24;7.20;;;2.95;;
40621;SDS011;26324;52.040;11.528;2023-06-10T03:10:52;4.60;;;2.88;;
40621;SDS011;26324;52.040;11.528;2023-06-10T03:13:20;4.38;;;2.85;;
40621;SDS011;26324;52.040;11.528;2023-06-10T03:15:48;4.50;;;2.90;;
40621;SDS011;26324;52.040;11.528;2023-06-10T03:18:19;3.88;;;2.45;;
40621;SDS011;26324;52.040;11.528;2023-06-10T03:20:47;7.00;;;2.95;;
40621;SDS011;26324;52.040;11.528;2023-06-10T03:23:15;5.40;;;2.40;;
40621;SDS011;26324;52.040;11.528;2023-06-10T03:25:43;5.53;;;2.72;;
40621;SDS011;26324;52.040;11.528;2023-06-10T03:28:14;4.10;;;2.45;;
40621;SDS011;26324;52.040;11.528;2023-06-10T03:30:42;4.85;;;2.13;;
40621;SDS011;26324;52.040;11.528;2023-06-10T03:33:10;5.82;;;2.80;;
40621;SDS011;26324;52.040;11.528;2023-06-10T03:38:06;3.58;;;2.33;;
40621;SDS011;26324;52.040;11.528;2023-06-10T03:40:34;5.35;;;2.65;;
40621;SDS011;26324;52.040;11.528;2023-06-10T03:43:02;6.90;;;3.03;;
40621;SDS011;26324;52.040;11.528;2023-06-10T03:45:30;7.07;;;2.80;;
40621;SDS011;26324;52.040;11.528;2023-06-10T03:48:01;7.00;;;3.00;;
40621;SDS011;26324;52.040;11.528;2023-06-10T03:50:39;5.15;;;2.70;;
40621;SDS011;26324;52.040;11.528;2023-06-10T03:53:06;7.00;;;2.60;;
40621;SDS011;26324;52.040;11.528;2023-06-10T03:55:35;5.05;;;2.42;;
40621;SDS011;26324;52.040;11.528;2023-06-10T03:58:04;3.53;;;2.63;;
40621;SDS011;26324;52.040;11.528;2023-06-10T04:00:31;7.20;;;3.00;;
40621;SDS011;26324;52.040;11.528;2023-06-10T04:03:08;6.90;;;2.78;;
40621;SDS011;26324;52.040;11.528;2023-06-10T04:05:45;4.50;;;3.03;;
40621;SDS011;26324;52.040;11.528;2023-06-10T04:08:13;8.13;;;3.00;;
40621;SDS011;26324;52.040;11.528;2023-06-10T04:10:40;8.30;;;3.33;;
40621;SDS011;26324;52.040;11.528;2023-06-10T04:13:07;6.03;;;3.10;;
40621;SDS011;26324;52.040;11.528;2023-06-10T04:15:41;6.00;;;3.47;;
40621;SDS011;26324;52.040;11.528;2023-06-10T04:18:14;5.82;;;3.22;;
40621;SDS011;26324;52.040;11.528;2023-06-10T04:20:44;5.88;;;3.05;;
40621;SDS011;26324;52.040;11.528;2023-06-10T04:23:12;6.00;;;3.22;;
40621;SDS011;26324;52.040;11.528;2023-06-10T04:25:41;4.57;;;2.67;;
40621;SDS011;26324;52.040;11.528;2023-06-10T04:28:10;8.55;;;2.90;;
40621;SDS011;26324;52.040;11.528;2023-06-10T04:30:37;7.07;;;2.92;;
40621;SDS011;26324;52.040;11.528;2023-06-10T04:33:05;8.30;;;3.22;;
40621;SDS011;26324;52.040;11.528;2023-06-10T04:35:33;7.05;;;3.45;;
40621;SDS011;26324;52.040;11.528;2023-06-10T04:38:02;6.45;;;2.60;;
40621;SDS011;26324;52.040;11.528;2023-06-10T04:42:58;5.72;;;2.65;;
40621;SDS011;26324;52.040;11.528;2023-06-10T04:45:26;7.75;;;3.05;;
40621;SDS011;26324;52.040;11.528;2023-06-10T04:52:50;7.53;;;2.88;;
40621;SDS011;26324;52.040;11.528;2023-06-10T04:55:17;5.75;;;2.65;;
40621;SDS011;26324;52.040;11.528;2023-06-10T04:57:44;6.88;;;3.45;;
40621;SDS011;26324;52.040;11.528;2023-06-10T05:00:12;7.28;;;2.92;;
40621;SDS011;26324;52.040;11.528;2023-06-10T05:02:40;5.40;;;2.75;;
40621;SDS011;26324;52.040;11.528;2023-06-10T05:05:07;7.50;;;3.28;;
40621;SDS011;26324;52.040;11.528;2023-06-10T05:07:35;7.10;;;3.10;;
40621;SDS011;26324;52.040;11.528;2023-06-10T05:10:03;6.95;;;2.97;;
40621;SDS011;26324;52.040;11.528;2023-06-10T05:12:30;8.38;;;3.00;;
40621;SDS011;26324;52.040;11.528;2023-06-10T05:14:58;9.85;;;4.22;;
40621;SDS011;26324;52.040;11.528;2023-06-10T05:17:25;7.68;;;3.17;;
40621;SDS011;26324;52.040;11.528;2023-06-10T05:19:53;7.63;;;3.17;;
40621;SDS011;26324;52.040;11.528;2023-06-10T05:22:20;5.45;;;2.70;;
40621;SDS011;26324;52.040;11.528;2023-06-10T05:24:50;6.05;;;2.78;;
40621;SDS011;26324;52.040;11.528;2023-06-10T05:27:18;4.28;;;2.65;;
40621;SDS011;26324;52.040;11.528;2023-06-10T05:29:45;7.43;;;3.08;;
40621;SDS011;26324;52.040;11.528;2023-06-10T05:32:13;5.75;;;2.90;;
40621;SDS011;26324;52.040;11.528;2023-06-10T05:34:40;9.85;;;3.13;;
40621;SDS011;26324;52.040;11.528;2023-06-10T05:37:08;4.80;;;2.88;;
40621;SDS011;26324;52.040;11.528;2023-06-10T05:39:36;9.52;;;3.10;;
40621;SDS011;26324;52.040;11.528;2023-06-10T05:42:07;8.05;;;3.47;;
40621;SDS011;26324;52.040;11.528;2023-06-10T05:44:34;7.53;;;3.00;;
40621;SDS011;26324;52.040;11.528;2023-06-10T05:47:02;5.55;;;3.08;;
40621;SDS011;26324;52.040;11.528;2023-06-10T05:49:30;5.82;;;3.17;;
40621;SDS011;26324;52.040;11.528;2023-06-10T05:51:57;5.20;;;3.35;;
40621;SDS011;26324;52.040;11.528;2023-06-10T05:54:26;4.80;;;2.88;;
40621;SDS011;26324;52.040;11.528;2023-06-10T05:56:56;5.85;;;3.15;;
40621;SDS011;26324;52.040;11.528;2023-06-10T05:59:23;6.85;;;3.13;;
40621;SDS011;26324;52.040;11.528;2023-06-10T06:01:51;5.57;;;2.95;;
40621;SDS011;26324;52.040;11.528;2023-06-10T06:04:18;6.57;;;2.83;;
40621;SDS011;26324;52.040;11.528;2023-06-10T06:06:45;6.85;;;3.55;;
40621;SDS011;26324;52.040;11.528;2023-06-10T06:09:13;5.60;;;3.20;;
40621;SDS011;26324;52.040;11.528;2023-06-10T06:11:40;6.85;;;2.88;;
40621;SDS011;26324;52.040;11.528;2023-06-10T06:14:08;5.28;;;2.85;;
40621;SDS011;26324;52.040;11.528;2023-06-10T06:16:36;7.47;;;3.15;;
40621;SDS011;26324;52.040;11.528;2023-06-10T06:19:03;10.98;;;3.28;;
40621;SDS011;26324;52.040;11.528;2023-06-10T06:21:31;6.32;;;2.60;;
40621;SDS011;26324;52.040;11.528;2023-06-10T06:23:59;5.55;;;3.13;;
40621;SDS011;26324;52.040;11.528;2023-06-10T06:26:26;6.70;;;3.17;;
40621;SDS011;26324;52.040;11.528;2023-06-10T06:28:53;6.32;;;3.83;;
40621;SDS011;26324;52.040;11.528;2023-06-10T06:31:21;7.07;;;3.00;;
40621;SDS011;26324;52.040;11.528;2023-06-10T06:33:48;8.23;;;3.10;;
40621;SDS011;26324;52.040;11.528;2023-06-10T06:36:15;5.13;;;3.10;;
40621;SDS011;26324;52.040;11.528;2023-06-10T06:38:43;6.50;;;3.42;;
40621;SDS011;26324;52.040;11.528;2023-06-10T06:41:10;7.25;;;3.30;;
40621;SDS011;26324;52.040;11.528;2023-06-10T06:43:37;5.47;;;2.85;;
40621;SDS011;26324;52.040;11.528;2023-06-10T06:46:25;4.50;;;3.45;;
40621;SDS011;26324;52.040;11.528;2023-06-10T06:48:52;5.93;;;2.88;;
40621;SDS011;26324;52.040;11.528;2023-06-10T06:51:20;5.43;;;3.03;;
40621;SDS011;26324;52.040;11.528;2023-06-10T06:53:47;7.13;;;3.30;;
40621;SDS011;26324;52.040;11.528;2023-06-10T06:56:17;8.32;;;3.38;;
40621;SDS011;26324;52.040;11.528;2023-06-10T06:58:44;7.20;;;3.25;;
40621;SDS011;26324;52.040;11.528;2023-06-10T07:01:11;8.65;;;3.58;;
40621;SDS011;26324;52.040;11.528;2023-06-10T07:03:39;8.35;;;3.78;;
40621;SDS011;26324;52.040;11.528;2023-06-10T07:06:06;6.20;;;3.15;;
40621;SDS011;26324;52.040;11.528;2023-06-10T07:08:33;6.50;;;3.35;;
40621;SDS011;26324;52.040;11.528;2023-06-10T07:11:01;6.25;;;2.92;;
40621;SDS011;26324;52.040;11.528;2023-06-10T07:13:28;5.53;;;2.92;;
40621;SDS011;26324;52.040;11.528;2023-06-10T07:15:55;5.25;;;2.60;;
40621;SDS011;26324;52.040;11.528;2023-06-10T07:18:22;7.38;;;3.38;;
40621;SDS011;26324;52.040;11.528;2023-06-10T07:20:50;7.10;;;3.13;;
40621;SDS011;26324;52.040;11.528;2023-06-10T07:23:17;6.72;;;3.13;;
40621;SDS011;26324;52.040;11.528;2023-06-10T07:25:45;7.10;;;3.03;;
40621;SDS011;26324;52.040;11.528;2023-06-10T07:28:12;6.25;;;3.53;;
40621;SDS011;26324;52.040;11.528;2023-06-10T07:30:39;5.78;;;3.08;;
40621;SDS011;26324;52.040;11.528;2023-06-10T07:33:07;9.10;;;3.50;;
40621;SDS011;26324;52.040;11.528;2023-06-10T07:35:34;6.28;;;3.20;;
40621;SDS011;26324;52.040;11.528;2023-06-10T07:38:02;5.50;;;3.22;;
40621;SDS011;26324;52.040;11.528;2023-06-10T07:40:29;5.97;;;3.35;;
40621;SDS011;26324;52.040;11.528;2023-06-10T07:43:00;6.38;;;3.47;;
40621;SDS011;26324;52.040;11.528;2023-06-10T07:45:27;8.38;;;3.55;;
40621;SDS011;26324;52.040;11.528;2023-06-10T07:47:54;6.20;;;3.35;;
40621;SDS011;26324;52.040;11.528;2023-06-10T07:50:22;9.25;;;2.97;;
40621;SDS011;26324;52.040;11.528;2023-06-10T07:52:50;11.13;;;3.42;;
40621;SDS011;26324;52.040;11.528;2023-06-10T07:55:17;5.35;;;3.50;;
40621;SDS011;26324;52.040;11.528;2023-06-10T07:57:45;6.30;;;3.30;;
40621;SDS011;26324;52.040;11.528;2023-06-10T08:00:13;7.03;;;3.65;;
40621;SDS011;26324;52.040;11.528;2023-06-10T08:02:40;6.63;;;3.25;;
40621;SDS011;26324;52.040;11.528;2023-06-10T08:05:08;9.05;;;3.22;;
40621;SDS011;26324;52.040;11.528;2023-06-10T08:07:36;6.47;;;3.47;;
40621;SDS011;26324;52.040;11.528;2023-06-10T08:10:03;6.93;;;4.28;;
40621;SDS011;26324;52.040;11.528;2023-06-10T08:12:31;6.30;;;3.30;;
40621;SDS011;26324;52.040;11.528;2023-06-10T08:14:59;7.63;;;3.60;;
40621;SDS011;26324;52.040;11.528;2023-06-10T08:17:27;4.88;;;3.38;;
40621;SDS011;26324;52.040;11.528;2023-06-10T08:19:54;7.97;;;4.10;;
40621;SDS011;26324;52.040;11.528;2023-06-10T08:22:22;7.22;;;3.40;;
40621;SDS011;26324;52.040;11.528;2023-06-10T08:24:49;8.18;;;3.72;;
40621;SDS011;26324;52.040;11.528;2023-06-10T08:27:16;5.70;;;4.05;;
40621;SDS011;26324;52.040;11.528;2023-06-10T08:29:44;7.10;;;3.75;;
40621;SDS011;26324;52.040;11.528;2023-06-10T08:32:11;6.15;;;3.15;;
40621;SDS011;26324;52.040;11.528;2023-06-10T08:34:38;6.57;;;3.92;;
40621;SDS011;26324;52.040;11.528;2023-06-10T08:37:06;6.50;;;4.13;;
40621;SDS011;26324;52.040;11.528;2023-06-10T08:39:33;8.60;;;4.07;;
40621;SDS011;26324;52.040;11.528;2023-06-10T08:44:40;6.88;;;4.05;;
40621;SDS011;26324;52.040;11.528;2023-06-10T08:47:13;5.65;;;3.40;;
40621;SDS011;26324;52.040;11.528;2023-06-10T08:49:45;8.23;;;4.35;;
40621;SDS011;26324;52.040;11.528;2023-06-10T08:52:14;7.25;;;4.18;;
40621;SDS011;26324;52.040;11.528;2023-06-10T08:54:46;6.97;;;4.10;;
40621;SDS011;26324;52.040;11.528;2023-06-10T08:57:18;9.25;;;4.50;;
40621;SDS011;26324;52.040;11.528;2023-06-10T08:59:48;8.85;;;4.30;;
40621;SDS011;26324;52.040;11.528;2023-06-10T09:02:16;7.85;;;4.15;;
40621;SDS011;26324;52.040;11.528;2023-06-10T09:04:46;6.68;;;3.75;;
40621;SDS011;26324;52.040;11.528;2023-06-10T09:07:15;8.38;;;4.03;;
40621;SDS011;26324;52.040;11.528;2023-06-10T09:09:44;5.90;;;3.80;;
40621;SDS011;26324;52.040;11.528;2023-06-10T09:12:13;9.57;;;5.10;;
40621;SDS011;26324;52.040;11.528;2023-06-10T09:14:41;5.70;;;4.15;;
40621;SDS011;26324;52.040;11.528;2023-06-10T09:17:09;5.95;;;4.13;;
40621;SDS011;26324;52.040;11.528;2023-06-10T09:19:37;6.10;;;4.03;;
40621;SDS011;26324;52.040;11.528;2023-06-10T09:22:06;7.45;;;4.07;;
40621;SDS011;26324;52.040;11.528;2023-06-10T09:24:34;6.25;;;4.22;;
40621;SDS011;26324;52.040;11.528;2023-06-10T09:27:02;7.22;;;4.10;;
40621;SDS011;26324;52.040;11.528;2023-06-10T09:29:30;6.10;;;4.82;;
40621;SDS011;26324;52.040;11.528;2023-06-10T09:31:57;8.05;;;4.68;;
40621;SDS011;26324;52.040;11.528;2023-06-10T09:34:25;8.48;;;5.53;;
40621;SDS011;26324;52.040;11.528;2023-06-10T09:36:53;5.85;;;4.43;;
40621;SDS011;26324;52.040;11.528;2023-06-10T09:39:21;7.72;;;4.32;;
40621;SDS011;26324;52.040;11.528;2023-06-10T09:41:48;6.13;;;4.80;;
40621;SDS011;26324;52.040;11.528;2023-06-10T09:44:16;7.70;;;5.00;;
40621;SDS011;26324;52.040;11.528;2023-06-10T09:46:46;6.88;;;4.93;;
40621;SDS011;26324;52.040;11.528;2023-06-10T09:49:15;8.85;;;5.13;;
40621;SDS011;26324;52.040;11.528;2023-06-10T09:51:49;6.03;;;4.90;;
40621;SDS011;26324;52.040;11.528;2023-06-10T09:54:18;6.45;;;4.70;;
40621;SDS011;26324;52.040;11.528;2023-06-10T09:56:47;5.57;;;4.20;;
40621;SDS011;26324;52.040;11.528;2023-06-10T10:01:42;5.97;;;4.70;;
40621;SDS011;26324;52.040;11.528;2023-06-10T10:04:10;8.40;;;5.05;;
40621;SDS011;26324;52.040;11.528;2023-06-10T10:06:37;6.20;;;4.47;;
40621;SDS011;26324;52.040;11.528;2023-06-10T10:09:06;8.70;;;5.20;;
40621;SDS011;26324;52.040;11.528;2023-06-10T10:11:33;6.15;;;4.70;;
40621;SDS011;26324;52.040;11.528;2023-06-10T10:14:02;7.00;;;5.00;;
40621;SDS011;26324;52.040;11.528;2023-06-10T10:16:35;8.70;;;4.72;;
40621;SDS011;26324;52.040;11.528;2023-06-10T10:19:09;11.82;;;6.15;;
40621;SDS011;26324;52.040;11.528;2023-06-10T10:21:45;7.00;;;5.10;;
40621;SDS011;26324;52.040;11.528;2023-06-10T10:24:26;7.53;;;4.72;;
40621;SDS011;26324;52.040;11.528;2023-06-10T10:27:01;8.93;;;5.57;;
40621;SDS011;26324;52.040;11.528;2023-06-10T10:29:39;8.35;;;5.20;;
40621;SDS011;26324;52.040;11.528;2023-06-10T10:32:07;6.50;;;4.95;;
40621;SDS011;26324;52.040;11.528;2023-06-10T10:34:51;6.85;;;5.07;;
40621;SDS011;26324;52.040;11.528;2023-06-10T10:37:25;7.70;;;5.20;;
40621;SDS011;26324;52.040;11.528;2023-06-10T10:42:21;6.03;;;5.28;;
40621;SDS011;26324;52.040;11.528;2023-06-10T10:44:48;7.10;;;4.80;;
40621;SDS011;26324;52.040;11.528;2023-06-10T10:47:17;5.82;;;4.65;;
40621;SDS011;26324;52.040;11.528;2023-06-10T10:49:48;4.55;;;4.15;;
40621;SDS011;26324;52.040;11.528;2023-06-10T10:52:19;8.13;;;4.68;;
40621;SDS011;26324;52.040;11.528;2023-06-10T10:54:46;8.60;;;4.88;;
40621;SDS011;26324;52.040;11.528;2023-06-10T10:57:18;8.18;;;4.63;;
40621;SDS011;26324;52.040;11.528;2023-06-10T10:59:56;5.65;;;4.10;;
40621;SDS011;26324;52.040;11.528;2023-06-10T11:05:14;7.78;;;4.90;;
40621;SDS011;26324;52.040;11.528;2023-06-10T11:07:51;7.35;;;5.35;;
40621;SDS011;26324;52.040;11.528;2023-06-10T11:10:30;5.70;;;4.53;;
40621;SDS011;26324;52.040;11.528;2023-06-10T11:15:44;9.40;;;4.38;;
40621;SDS011;26324;52.040;11.528;2023-06-10T11:18:27;5.55;;;4.55;;
40621;SDS011;26324;52.040;11.528;2023-06-10T11:20:57;5.93;;;4.60;;
40621;SDS011;26324;52.040;11.528;2023-06-10T11:26:10;7.97;;;4.95;;
40621;SDS011;26324;52.040;11.528;2023-06-10T11:28:42;6.47;;;4.53;;
40621;SDS011;26324;52.040;11.528;2023-06-10T11:31:20;6.38;;;4.65;;
40621;SDS011;26324;52.040;11.528;2023-06-10T11:33:55;6.47;;;4.65;;
40621;SDS011;26324;52.040;11.528;2023-06-10T11:36:27;6.57;;;4.82;;
40621;SDS011;26324;52.040;11.528;2023-06-10T11:38:56;6.32;;;4.97;;
40621;SDS011;26324;52.040;11.528;2023-06-10T11:41:25;6.22;;;5.18;;
40621;SDS011;26324;52.040;11.528;2023-06-10T11:43:53;7.97;;;5.15;;
40621;SDS011;26324;52.040;11.528;2023-06-10T11:46:24;6.95;;;5.13;;
40621;SDS011;26324;52.040;11.528;2023-06-10T11:48:56;6.82;;;5.82;;
40621;SDS011;26324;52.040;11.528;2023-06-10T11:51:28;7.18;;;5.20;;
40621;SDS011;26324;52.040;11.528;2023-06-10T11:53:57;6.85;;;5.20;;
40621;SDS011;26324;52.040;11.528;2023-06-10T11:56:25;7.13;;;5.20;;
40621;SDS011;26324;52.040;11.528;2023-06-10T12:01:21;5.90;;;4.80;;
40621;SDS011;26324;52.040;11.528;2023-06-10T12:03:59;5.30;;;4.80;;
40621;SDS011;26324;52.040;11.528;2023-06-10T12:06:48;7.25;;;4.80;;
40621;SDS011;26324;52.040;11.528;2023-06-10T12:12:05;5.22;;;4.72;;
40621;SDS011;26324;52.040;11.528;2023-06-10T12:14:53;6.97;;;5.15;;
40621;SDS011;26324;52.040;11.528;2023-06-10T12:22:38;5.63;;;5.05;;
40621;SDS011;26324;52.040;11.528;2023-06-10T12:25:07;6.57;;;5.32;;
40621;SDS011;26324;52.040;11.528;2023-06-10T12:27:35;6.82;;;4.97;;
40621;SDS011;26324;52.040;11.528;2023-06-10T12:30:05;5.82;;;4.70;;
40621;SDS011;26324;52.040;11.528;2023-06-10T12:32:41;7.57;;;5.28;;
40621;SDS011;26324;52.040;11.528;2023-06-10T12:35:13;6.40;;;5.25;;
40621;SDS011;26324;52.040;11.528;2023-06-10T12:40:48;7.70;;;5.30;;
40621;SDS011;26324;52.040;11.528;2023-06-10T12:43:19;7.70;;;5.00;;
40621;SDS011;26324;52.040;11.528;2023-06-10T12:45:48;5.65;;;4.93;;
40621;SDS011;26324;52.040;11.528;2023-06-10T12:48:19;5.60;;;5.10;;
40621;SDS011;26324;52.040;11.528;2023-06-10T12:50:51;9.25;;;5.40;;
40621;SDS011;26324;52.040;11.528;2023-06-10T12:53:21;6.53;;;4.70;;
40621;SDS011;26324;52.040;11.528;2023-06-10T12:55:50;8.70;;;5.15;;
40621;SDS011;26324;52.040;11.528;2023-06-10T12:58:21;6.30;;;4.63;;
40621;SDS011;26324;52.040;11.528;2023-06-10T13:00:50;6.25;;;5.07;;
40621;SDS011;26324;52.040;11.528;2023-06-10T13:03:20;6.15;;;4.95;;
40621;SDS011;26324;52.040;11.528;2023-06-10T13:05:48;7.35;;;5.00;;
40621;SDS011;26324;52.040;11.528;2023-06-10T13:08:16;5.00;;;4.50;;
40621;SDS011;26324;52.040;11.528;2023-06-10T13:10:43;6.00;;;5.00;;
40621;SDS011;26324;52.040;11.528;2023-06-10T13:13:10;5.90;;;5.10;;
40621;SDS011;26324;52.040;11.528;2023-06-10T13:15:37;5.35;;;4.35;;
40621;SDS011;26324;52.040;11.528;2023-06-10T13:18:10;7.20;;;5.55;;
40621;SDS011;26324;52.040;11.528;2023-06-10T13:20:37;6.00;;;5.35;;
40621;SDS011;26324;52.040;11.528;2023-06-10T13:23:05;7.68;;;5.20;;
40621;SDS011;26324;52.040;11.528;2023-06-10T13:25:32;5.47;;;4.97;;
40621;SDS011;26324;52.040;11.528;2023-06-10T13:28:00;6.07;;;4.95;;
40621;SDS011;26324;52.040;11.528;2023-06-10T13:30:28;5.68;;;5.05;;
40621;SDS011;26324;52.040;11.528;2023-06-10T13:32:55;6.40;;;5.13;;
40621;SDS011;26324;52.040;11.528;2023-06-10T13:35:23;5.88;;;5.20;;
40621;SDS011;26324;52.040;11.528;2023-06-10T13:37:50;6.85;;;5.25;;
40621;SDS011;26324;52.040;11.528;2023-06-10T13:40:17;5.38;;;4.88;;
40621;SDS011;26324;52.040;11.528;2023-06-10T13:42:46;7.13;;;4.82;;
40621;SDS011;26324;52.040;11.528;2023-06-10T13:45:17;6.07;;;5.35;;
40621;SDS011;26324;52.040;11.528;2023-06-10T13:47:45;5.13;;;4.63;;
40621;SDS011;26324;52.040;11.528;2023-06-10T13:50:12;5.18;;;4.68;;
40621;SDS011;26324;52.040;11.528;2023-06-10T13:52:40;7.18;;;5.07;;
40621;SDS011;26324;52.040;11.528;2023-06-10T13:55:07;5.07;;;4.57;;
40621;SDS011;26324;52.040;11.528;2023-06-10T13:57:36;6.03;;;5.00;;
40621;SDS011;26324;52.040;11.528;2023-06-10T14:00:03;6.80;;;5.47;;
40621;SDS011;26324;52.040;11.528;2023-06-10T14:02:32;9.48;;;6.35;;
40621;SDS011;26324;52.040;11.528;2023-06-10T14:04:59;7.07;;;4.95;;
40621;SDS011;26324;52.040;11.528;2023-06-10T14:07:28;8.13;;;4.85;;
40621;SDS011;26324;52.040;11.528;2023-06-10T14:09:55;5.20;;;4.47;;
40621;SDS011;26324;52.040;11.528;2023-06-10T14:12:23;7.80;;;4.93;;
40621;SDS011;26324;52.040;11.528;2023-06-10T14:14:50;7.43;;;4.47;;
40621;SDS011;26324;52.040;11.528;2023-06-10T14:17:17;6.25;;;4.93;;
40621;SDS011;26324;52.040;11.528;2023-06-10T14:19:45;9.23;;;4.93;;
40621;SDS011;26324;52.040;11.528;2023-06-10T14:22:12;8.93;;;4.72;;
40621;SDS011;26324;52.040;11.528;2023-06-10T14:24:39;7.25;;;4.97;;
40621;SDS011;26324;52.040;11.528;2023-06-10T14:27:08;9.65;;;4.82;;
40621;SDS011;26324;52.040;11.528;2023-06-10T14:29:35;9.30;;;4.80;;
40621;SDS011;26324;52.040;11.528;2023-06-10T14:32:02;8.82;;;5.18;;
40621;SDS011;26324;52.040;11.528;2023-06-10T14:34:34;12.25;;;5.13;;
40621;SDS011;26324;52.040;11.528;2023-06-10T14:37:02;8.40;;;5.22;;
40621;SDS011;26324;52.040;11.528;2023-06-10T14:39:34;7.97;;;5.60;;
40621;SDS011;26324;52.040;11.528;2023-06-10T14:42:02;8.30;;;4.70;;
40621;SDS011;26324;52.040;11.528;2023-06-10T14:44:29;7.18;;;4.35;;
40621;SDS011;26324;52.040;11.528;2023-06-10T14:46:56;6.47;;;4.63;;
40621;SDS011;26324;52.040;11.528;2023-06-10T14:49:24;7.18;;;4.78;;
40621;SDS011;26324;52.040;11.528;2023-06-10T14:51:51;8.75;;;4.60;;
40621;SDS011;26324;52.040;11.528;2023-06-10T14:54:18;8.80;;;4.85;;
40621;SDS011;26324;52.040;11.528;2023-06-10T14:56:46;5.35;;;4.25;;
40621;SDS011;26324;52.040;11.528;2023-06-10T15:01:41;8.50;;;4.43;;
40621;SDS011;26324;52.040;11.528;2023-06-10T15:04:09;7.73;;;4.73;;
40621;SDS011;26324;52.040;11.528;2023-06-10T15:06:36;5.55;;;3.72;;
40621;SDS011;26324;52.040;11.528;2023-06-10T15:09:03;4.70;;;3.85;;
40621;SDS011;26324;52.040;11.528;2023-06-10T15:11:31;5.45;;;4.47;;
40621;SDS011;26324;52.040;11.528;2023-06-10T15:13:58;5.57;;;4.40;;
40621;SDS011;26324;52.040;11.528;2023-06-10T15:16:26;5.32;;;4.13;;
40621;SDS011;26324;52.040;11.528;2023-06-10T15:18:53;6.07;;;4.80;;
40621;SDS011;26324;52.040;11.528;2023-06-10T15:21:20;6.47;;;4.28;;
40621;SDS011;26324;52.040;11.528;2023-06-10T15:23:48;4.22;;;3.53;;
40621;SDS011;26324;52.040;11.528;2023-06-10T15:26:15;4.28;;;3.85;;
40621;SDS011;26324;52.040;11.528;2023-06-10T15:28:42;5.80;;;4.45;;
40621;SDS011;26324;52.040;11.528;2023-06-10T15:31:10;5.25;;;4.18;;
40621;SDS011;26324;52.040;11.528;2023-06-10T15:33:37;4.57;;;3.80;;
40621;SDS011;26324;52.040;11.528;2023-06-10T15:36:04;5.15;;;3.45;;
40621;SDS011;26324;52.040;11.528;2023-06-10T15:38:32;5.65;;;3.80;;
40621;SDS011;26324;52.040;11.528;2023-06-10T15:41:00;4.35;;;3.88;;
40621;SDS011;26324;52.040;11.528;2023-06-10T15:43:27;5.88;;;4.00;;
40621;SDS011;26324;52.040;11.528;2023-06-10T15:45:55;5.97;;;3.63;;